Bujumbura International Airport Bujumbura BI
ICAO: HBBA
IATA: BJM
Category: Medium
Scheduled Services: Yes

Elevation: 2582 ft
TransAlt. 9500 ft.

Airport Communications:
APP:119.7
GND:121.9
TWR:118.1

HBBA Zoom In..

Runways:

(A) RW 17 length 11811 ft width 148 ft
ILS 110.10 / hdg 174

(B) RW 35 length 11811 ft width 148 ft
---- / hdg 354

Location; HBBA
Day. 10 / Time. 08.00 Zulu
* QNH: 1015
* Temperature: 27° c. 80.6°f.
* Wind from: 000° Speed 00 kn.
Dewpoint: 17° c.
Visibility: 6000 m.
No significant clouds are observed below 5000 ft.
No significant changes expected in the near future.

HBBA 100800Z 00000KT 6000 NSC 27/17 Q1015 NOSIG

Going to: --> -->


Wind - Calm.

 
 
jpsmedia worldairports.se 2020   terms of use